sensor_id;sensor_type;location;lat;lon;timestamp;P1;durP1;ratioP1;P2;durP2;ratioP2
10399;SDS011;10031;51.180;17.168;2022-10-23T00:00:37;38.17;;;15.37;;
10399;SDS011;10031;51.180;17.168;2022-10-23T00:03:03;20.20;;;13.27;;
10399;SDS011;10031;51.180;17.168;2022-10-23T00:05:29;22.90;;;13.57;;
10399;SDS011;10031;51.180;17.168;2022-10-23T00:07:56;18.73;;;13.50;;
10399;SDS011;10031;51.180;17.168;2022-10-23T00:10:24;21.83;;;14.03;;
10399;SDS011;10031;51.180;17.168;2022-10-23T00:12:51;22.73;;;15.40;;
10399;SDS011;10031;51.180;17.168;2022-10-23T00:15:18;73.63;;;14.17;;
10399;SDS011;10031;51.180;17.168;2022-10-23T00:17:45;170.63;;;15.97;;
10399;SDS011;10031;51.180;17.168;2022-10-23T00:20:12;27.93;;;13.37;;
10399;SDS011;10031;51.180;17.168;2022-10-23T00:22:38;70.97;;;12.23;;
10399;SDS011;10031;51.180;17.168;2022-10-23T00:25:06;44.07;;;11.17;;
10399;SDS011;10031;51.180;17.168;2022-10-23T00:27:33;40.43;;;11.43;;
10399;SDS011;10031;51.180;17.168;2022-10-23T00:29:59;57.73;;;10.63;;
10399;SDS011;10031;51.180;17.168;2022-10-23T00:32:25;65.00;;;10.30;;
10399;SDS011;10031;51.180;17.168;2022-10-23T00:34:51;48.00;;;9.73;;
10399;SDS011;10031;51.180;17.168;2022-10-23T00:37:17;46.57;;;11.70;;
10399;SDS011;10031;51.180;17.168;2022-10-23T00:39:44;37.43;;;10.90;;
10399;SDS011;10031;51.180;17.168;2022-10-23T00:42:15;15.93;;;10.20;;
10399;SDS011;10031;51.180;17.168;2022-10-23T00:47:09;162.73;;;17.70;;
10399;SDS011;10031;51.180;17.168;2022-10-23T00:49:36;23.53;;;12.87;;
10399;SDS011;10031;51.180;17.168;2022-10-23T00:52:04;30.37;;;13.50;;
10399;SDS011;10031;51.180;17.168;2022-10-23T00:54:35;76.30;;;15.83;;
10399;SDS011;10031;51.180;17.168;2022-10-23T00:57:13;103.20;;;14.70;;
10399;SDS011;10031;51.180;17.168;2022-10-23T00:59:40;105.40;;;15.07;;
10399;SDS011;10031;51.180;17.168;2022-10-23T01:02:06;175.63;;;17.93;;
10399;SDS011;10031;51.180;17.168;2022-10-23T01:04:32;116.20;;;17.27;;
10399;SDS011;10031;51.180;17.168;2022-10-23T01:07:11;146.63;;;18.37;;
10399;SDS011;10031;51.180;17.168;2022-10-23T01:09:38;170.10;;;17.17;;
10399;SDS011;10031;51.180;17.168;2022-10-23T01:12:27;168.63;;;18.20;;
10399;SDS011;10031;51.180;17.168;2022-10-23T01:18:10;64.93;;;18.07;;
10399;SDS011;10031;51.180;17.168;2022-10-23T01:20:44;100.90;;;18.63;;
10399;SDS011;10031;51.180;17.168;2022-10-23T01:31:41;37.83;;;15.87;;
10399;SDS011;10031;51.180;17.168;2022-10-23T01:34:16;25.47;;;15.97;;
10399;SDS011;10031;51.180;17.168;2022-10-23T01:36:52;31.40;;;13.70;;
10399;SDS011;10031;51.180;17.168;2022-10-23T01:39:54;30.70;;;12.10;;
10399;SDS011;10031;51.180;17.168;2022-10-23T01:42:24;116.43;;;13.70;;
10399;SDS011;10031;51.180;17.168;2022-10-23T01:44:58;117.53;;;14.07;;
10399;SDS011;10031;51.180;17.168;2022-10-23T01:47:45;118.10;;;13.77;;
10399;SDS011;10031;51.180;17.168;2022-10-23T01:50:13;89.57;;;13.23;;
10399;SDS011;10031;51.180;17.168;2022-10-23T01:52:41;119.33;;;13.13;;
10399;SDS011;10031;51.180;17.168;2022-10-23T01:55:08;135.00;;;14.20;;
10399;SDS011;10031;51.180;17.168;2022-10-23T01:57:37;101.63;;;13.23;;
10399;SDS011;10031;51.180;17.168;2022-10-23T02:00:09;38.90;;;11.50;;
10399;SDS011;10031;51.180;17.168;2022-10-23T02:02:37;133.83;;;15.33;;
10399;SDS011;10031;51.180;17.168;2022-10-23T02:07:41;38.13;;;11.77;;
10399;SDS011;10031;51.180;17.168;2022-10-23T02:10:07;27.13;;;11.53;;
10399;SDS011;10031;51.180;17.168;2022-10-23T02:20:48;17.40;;;10.40;;
10399;SDS011;10031;51.180;17.168;2022-10-23T02:23:42;12.47;;;9.53;;
10399;SDS011;10031;51.180;17.168;2022-10-23T02:26:40;15.03;;;9.70;;
10399;SDS011;10031;51.180;17.168;2022-10-23T02:29:13;51.57;;;10.67;;
10399;SDS011;10031;51.180;17.168;2022-10-23T02:32:00;57.80;;;12.40;;
10399;SDS011;10031;51.180;17.168;2022-10-23T02:34:26;49.13;;;12.77;;
10399;SDS011;10031;51.180;17.168;2022-10-23T02:36:52;25.90;;;11.63;;
10399;SDS011;10031;51.180;17.168;2022-10-23T02:39:20;30.43;;;11.47;;
10399;SDS011;10031;51.180;17.168;2022-10-23T02:44:40;69.40;;;14.37;;
10399;SDS011;10031;51.180;17.168;2022-10-23T02:53:13;113.70;;;15.37;;
10399;SDS011;10031;51.180;17.168;2022-10-23T03:00:48;35.43;;;11.53;;
10399;SDS011;10031;51.180;17.168;2022-10-23T03:03:29;40.10;;;12.03;;
10399;SDS011;10031;51.180;17.168;2022-10-23T03:05:59;37.87;;;11.33;;
10399;SDS011;10031;51.180;17.168;2022-10-23T03:08:25;43.33;;;12.03;;
10399;SDS011;10031;51.180;17.168;2022-10-23T03:10:51;30.90;;;12.70;;
10399;SDS011;10031;51.180;17.168;2022-10-23T03:13:18;42.73;;;12.70;;
10399;SDS011;10031;51.180;17.168;2022-10-23T03:15:44;61.03;;;13.97;;
10399;SDS011;10031;51.180;17.168;2022-10-23T03:18:10;102.97;;;15.00;;
10399;SDS011;10031;51.180;17.168;2022-10-23T03:20:36;77.37;;;14.50;;
10399;SDS011;10031;51.180;17.168;2022-10-23T03:23:03;103.57;;;16.37;;
10399;SDS011;10031;51.180;17.168;2022-10-23T03:25:28;60.67;;;15.47;;
10399;SDS011;10031;51.180;17.168;2022-10-23T03:27:54;80.43;;;16.93;;
10399;SDS011;10031;51.180;17.168;2022-10-23T03:30:20;71.07;;;15.10;;
10399;SDS011;10031;51.180;17.168;2022-10-23T03:32:46;77.03;;;16.00;;
10399;SDS011;10031;51.180;17.168;2022-10-23T03:35:12;31.27;;;15.03;;
10399;SDS011;10031;51.180;17.168;2022-10-23T03:37:38;33.93;;;15.60;;
10399;SDS011;10031;51.180;17.168;2022-10-23T03:40:04;32.83;;;17.70;;
10399;SDS011;10031;51.180;17.168;2022-10-23T03:42:30;35.40;;;18.53;;
10399;SDS011;10031;51.180;17.168;2022-10-23T03:44:56;42.20;;;20.77;;
10399;SDS011;10031;51.180;17.168;2022-10-23T03:47:22;39.53;;;21.13;;
10399;SDS011;10031;51.180;17.168;2022-10-23T03:49:52;41.37;;;20.43;;
10399;SDS011;10031;51.180;17.168;2022-10-23T03:52:17;43.80;;;20.03;;
10399;SDS011;10031;51.180;17.168;2022-10-23T03:54:43;34.93;;;19.60;;
10399;SDS011;10031;51.180;17.168;2022-10-23T03:57:10;33.93;;;19.90;;
10399;SDS011;10031;51.180;17.168;2022-10-23T03:59:36;31.47;;;18.20;;
10399;SDS011;10031;51.180;17.168;2022-10-23T04:02:02;33.73;;;19.83;;
10399;SDS011;10031;51.180;17.168;2022-10-23T04:04:27;34.03;;;19.70;;
10399;SDS011;10031;51.180;17.168;2022-10-23T04:06:53;35.57;;;19.50;;
10399;SDS011;10031;51.180;17.168;2022-10-23T04:09:19;31.03;;;18.77;;
10399;SDS011;10031;51.180;17.168;2022-10-23T04:11:45;30.73;;;19.13;;
10399;SDS011;10031;51.180;17.168;2022-10-23T04:14:11;28.73;;;20.40;;
10399;SDS011;10031;51.180;17.168;2022-10-23T04:16:37;24.17;;;18.40;;
10399;SDS011;10031;51.180;17.168;2022-10-23T04:19:03;24.40;;;18.60;;
10399;SDS011;10031;51.180;17.168;2022-10-23T04:21:29;31.13;;;19.73;;
10399;SDS011;10031;51.180;17.168;2022-10-23T04:23:55;41.90;;;22.90;;
10399;SDS011;10031;51.180;17.168;2022-10-23T04:26:21;53.70;;;25.27;;
10399;SDS011;10031;51.180;17.168;2022-10-23T04:28:47;41.90;;;25.60;;
10399;SDS011;10031;51.180;17.168;2022-10-23T04:31:13;48.43;;;26.80;;
10399;SDS011;10031;51.180;17.168;2022-10-23T04:33:39;53.27;;;28.33;;
10399;SDS011;10031;51.180;17.168;2022-10-23T04:36:06;53.27;;;28.67;;
10399;SDS011;10031;51.180;17.168;2022-10-23T04:38:32;40.83;;;25.53;;
10399;SDS011;10031;51.180;17.168;2022-10-23T04:40:58;45.27;;;25.17;;
10399;SDS011;10031;51.180;17.168;2022-10-23T04:43:24;39.23;;;23.83;;
10399;SDS011;10031;51.180;17.168;2022-10-23T04:45:50;35.37;;;22.57;;
10399;SDS011;10031;51.180;17.168;2022-10-23T04:48:16;49.00;;;27.00;;
10399;SDS011;10031;51.180;17.168;2022-10-23T04:50:43;38.30;;;23.03;;
10399;SDS011;10031;51.180;17.168;2022-10-23T04:53:09;44.83;;;23.50;;
10399;SDS011;10031;51.180;17.168;2022-10-23T04:55:35;40.67;;;23.33;;
10399;SDS011;10031;51.180;17.168;2022-10-23T04:58:01;40.07;;;23.37;;
10399;SDS011;10031;51.180;17.168;2022-10-23T05:00:27;35.83;;;22.13;;
10399;SDS011;10031;51.180;17.168;2022-10-23T05:02:53;32.67;;;20.50;;
10399;SDS011;10031;51.180;17.168;2022-10-23T05:05:19;31.17;;;19.50;;
10399;SDS011;10031;51.180;17.168;2022-10-23T05:07:45;32.40;;;20.93;;
10399;SDS011;10031;51.180;17.168;2022-10-23T05:10:11;35.73;;;22.50;;
10399;SDS011;10031;51.180;17.168;2022-10-23T05:12:37;31.73;;;20.00;;
10399;SDS011;10031;51.180;17.168;2022-10-23T05:15:02;42.13;;;24.53;;
10399;SDS011;10031;51.180;17.168;2022-10-23T05:17:33;38.00;;;23.57;;
10399;SDS011;10031;51.180;17.168;2022-10-23T05:20:02;69.33;;;25.13;;
10399;SDS011;10031;51.180;17.168;2022-10-23T05:22:31;110.97;;;25.37;;
10399;SDS011;10031;51.180;17.168;2022-10-23T05:25:00;221.53;;;27.03;;
10399;SDS011;10031;51.180;17.168;2022-10-23T05:27:26;128.30;;;25.97;;
10399;SDS011;10031;51.180;17.168;2022-10-23T05:29:52;99.97;;;23.93;;
10399;SDS011;10031;51.180;17.168;2022-10-23T05:32:18;90.03;;;24.27;;
10399;SDS011;10031;51.180;17.168;2022-10-23T05:34:45;73.70;;;23.40;;
10399;SDS011;10031;51.180;17.168;2022-10-23T05:37:11;70.23;;;25.57;;
10399;SDS011;10031;51.180;17.168;2022-10-23T05:39:44;97.97;;;23.60;;
10399;SDS011;10031;51.180;17.168;2022-10-23T05:42:10;68.60;;;23.90;;
10399;SDS011;10031;51.180;17.168;2022-10-23T05:44:36;56.17;;;24.57;;
10399;SDS011;10031;51.180;17.168;2022-10-23T05:47:02;40.10;;;23.00;;
10399;SDS011;10031;51.180;17.168;2022-10-23T05:49:28;34.37;;;21.10;;
10399;SDS011;10031;51.180;17.168;2022-10-23T05:51:57;72.70;;;25.57;;
10399;SDS011;10031;51.180;17.168;2022-10-23T05:54:25;44.80;;;26.57;;
10399;SDS011;10031;51.180;17.168;2022-10-23T05:56:51;48.27;;;27.07;;
10399;SDS011;10031;51.180;17.168;2022-10-23T05:59:17;51.40;;;27.97;;
10399;SDS011;10031;51.180;17.168;2022-10-23T06:01:43;41.13;;;26.53;;
10399;SDS011;10031;51.180;17.168;2022-10-23T06:04:09;38.07;;;24.47;;
10399;SDS011;10031;51.180;17.168;2022-10-23T06:06:35;36.63;;;22.97;;
10399;SDS011;10031;51.180;17.168;2022-10-23T06:09:02;34.87;;;21.50;;
10399;SDS011;10031;51.180;17.168;2022-10-23T06:11:28;34.17;;;22.77;;
10399;SDS011;10031;51.180;17.168;2022-10-23T06:13:54;33.67;;;23.00;;
10399;SDS011;10031;51.180;17.168;2022-10-23T06:16:21;36.80;;;22.57;;
10399;SDS011;10031;51.180;17.168;2022-10-23T06:18:50;33.87;;;22.63;;
10399;SDS011;10031;51.180;17.168;2022-10-23T06:21:16;31.40;;;21.40;;
10399;SDS011;10031;51.180;17.168;2022-10-23T06:23:42;61.30;;;22.47;;
10399;SDS011;10031;51.180;17.168;2022-10-23T06:26:10;32.00;;;21.03;;
10399;SDS011;10031;51.180;17.168;2022-10-23T06:28:37;36.13;;;22.37;;
10399;SDS011;10031;51.180;17.168;2022-10-23T06:31:07;34.57;;;22.33;;
10399;SDS011;10031;51.180;17.168;2022-10-23T06:33:38;34.07;;;23.20;;
10399;SDS011;10031;51.180;17.168;2022-10-23T06:36:05;38.23;;;24.27;;
10399;SDS011;10031;51.180;17.168;2022-10-23T06:38:37;38.07;;;25.03;;
10399;SDS011;10031;51.180;17.168;2022-10-23T06:41:10;41.10;;;26.13;;
10399;SDS011;10031;51.180;17.168;2022-10-23T06:43:38;40.73;;;26.30;;
10399;SDS011;10031;51.180;17.168;2022-10-23T06:46:05;38.60;;;24.40;;
10399;SDS011;10031;51.180;17.168;2022-10-23T06:48:31;32.43;;;22.67;;
10399;SDS011;10031;51.180;17.168;2022-10-23T06:51:08;33.80;;;22.80;;
10399;SDS011;10031;51.180;17.168;2022-10-23T06:53:36;36.80;;;25.83;;
10399;SDS011;10031;51.180;17.168;2022-10-23T06:56:09;33.57;;;24.90;;
10399;SDS011;10031;51.180;17.168;2022-10-23T06:58:35;38.53;;;26.87;;
10399;SDS011;10031;51.180;17.168;2022-10-23T07:01:03;34.73;;;24.87;;
10399;SDS011;10031;51.180;17.168;2022-10-23T07:03:31;32.50;;;21.73;;
10399;SDS011;10031;51.180;17.168;2022-10-23T07:05:59;38.20;;;23.13;;
10399;SDS011;10031;51.180;17.168;2022-10-23T07:08:26;35.73;;;24.83;;
10399;SDS011;10031;51.180;17.168;2022-10-23T07:10:52;37.80;;;25.43;;
10399;SDS011;10031;51.180;17.168;2022-10-23T07:13:18;33.27;;;22.97;;
10399;SDS011;10031;51.180;17.168;2022-10-23T07:15:46;37.30;;;24.50;;
10399;SDS011;10031;51.180;17.168;2022-10-23T07:18:15;33.03;;;23.03;;
10399;SDS011;10031;51.180;17.168;2022-10-23T07:20:42;32.60;;;23.10;;
10399;SDS011;10031;51.180;17.168;2022-10-23T07:23:08;33.50;;;22.23;;
10399;SDS011;10031;51.180;17.168;2022-10-23T07:25:40;27.63;;;19.87;;
10399;SDS011;10031;51.180;17.168;2022-10-23T07:28:09;26.50;;;18.87;;
10399;SDS011;10031;51.180;17.168;2022-10-23T07:30:34;23.77;;;16.57;;
10399;SDS011;10031;51.180;17.168;2022-10-23T07:33:00;20.77;;;15.87;;
10399;SDS011;10031;51.180;17.168;2022-10-23T07:35:26;22.67;;;16.83;;
10399;SDS011;10031;51.180;17.168;2022-10-23T07:37:52;21.03;;;14.63;;
10399;SDS011;10031;51.180;17.168;2022-10-23T07:40:17;21.93;;;15.53;;
10399;SDS011;10031;51.180;17.168;2022-10-23T07:42:43;21.70;;;16.27;;
10399;SDS011;10031;51.180;17.168;2022-10-23T07:45:10;20.77;;;14.93;;
10399;SDS011;10031;51.180;17.168;2022-10-23T07:47:37;21.67;;;15.23;;
10399;SDS011;10031;51.180;17.168;2022-10-23T07:50:03;24.17;;;16.10;;
10399;SDS011;10031;51.180;17.168;2022-10-23T07:52:29;23.50;;;15.97;;
10399;SDS011;10031;51.180;17.168;2022-10-23T07:54:55;25.17;;;16.97;;
10399;SDS011;10031;51.180;17.168;2022-10-23T07:57:21;28.50;;;18.67;;
10399;SDS011;10031;51.180;17.168;2022-10-23T07:59:47;24.23;;;17.03;;
10399;SDS011;10031;51.180;17.168;2022-10-23T08:02:14;23.37;;;16.63;;
10399;SDS011;10031;51.180;17.168;2022-10-23T08:04:43;20.83;;;15.97;;
10399;SDS011;10031;51.180;17.168;2022-10-23T08:07:13;22.23;;;15.43;;
10399;SDS011;10031;51.180;17.168;2022-10-23T08:09:39;24.00;;;15.33;;
10399;SDS011;10031;51.180;17.168;2022-10-23T08:12:08;19.07;;;14.63;;
10399;SDS011;10031;51.180;17.168;2022-10-23T08:14:35;20.87;;;15.40;;
10399;SDS011;10031;51.180;17.168;2022-10-23T08:17:00;19.90;;;13.80;;
10399;SDS011;10031;51.180;17.168;2022-10-23T08:19:28;18.83;;;13.87;;
10399;SDS011;10031;51.180;17.168;2022-10-23T08:21:54;18.57;;;14.13;;
10399;SDS011;10031;51.180;17.168;2022-10-23T08:24:21;21.70;;;13.60;;
10399;SDS011;10031;51.180;17.168;2022-10-23T08:26:48;18.67;;;13.57;;
10399;SDS011;10031;51.180;17.168;2022-10-23T08:29:14;25.77;;;15.00;;
10399;SDS011;10031;51.180;17.168;2022-10-23T08:31:40;17.33;;;14.00;;
10399;SDS011;10031;51.180;17.168;2022-10-23T08:34:07;20.50;;;14.63;;
10399;SDS011;10031;51.180;17.168;2022-10-23T08:36:33;17.73;;;14.37;;
10399;SDS011;10031;51.180;17.168;2022-10-23T08:39:00;17.47;;;14.70;;
10399;SDS011;10031;51.180;17.168;2022-10-23T08:41:28;19.17;;;15.80;;
10399;SDS011;10031;51.180;17.168;2022-10-23T08:44:17;20.23;;;15.87;;
10399;SDS011;10031;51.180;17.168;2022-10-23T08:47:04;19.57;;;15.80;;
10399;SDS011;10031;51.180;17.168;2022-10-23T08:52:34;19.67;;;14.45;;
10399;SDS011;10031;51.180;17.168;2022-10-23T08:55:20;17.48;;;13.52;;
10399;SDS011;10031;51.180;17.168;2022-10-23T09:00:26;16.77;;;12.43;;
10399;SDS011;10031;51.180;17.168;2022-10-23T09:02:52;17.40;;;13.77;;
10399;SDS011;10031;51.180;17.168;2022-10-23T09:11:03;15.18;;;12.18;;
10399;SDS011;10031;51.180;17.168;2022-10-23T09:18:40;15.10;;;9.93;;
10399;SDS011;10031;51.180;17.168;2022-10-23T09:21:09;12.43;;;10.18;;
10399;SDS011;10031;51.180;17.168;2022-10-23T09:23:36;11.93;;;9.77;;
10399;SDS011;10031;51.180;17.168;2022-10-23T09:26:15;10.57;;;9.48;;
10399;SDS011;10031;51.180;17.168;2022-10-23T09:28:44;11.98;;;9.70;;
10399;SDS011;10031;51.180;17.168;2022-10-23T09:31:15;12.10;;;8.55;;
10399;SDS011;10031;51.180;17.168;2022-10-23T09:33:52;10.77;;;8.15;;
10399;SDS011;10031;51.180;17.168;2022-10-23T09:36:26;10.55;;;7.25;;
10399;SDS011;10031;51.180;17.168;2022-10-23T09:38:54;9.05;;;7.30;;
10399;SDS011;10031;51.180;17.168;2022-10-23T09:41:29;10.02;;;6.35;;
10399;SDS011;10031;51.180;17.168;2022-10-23T09:44:19;8.50;;;6.43;;
10399;SDS011;10031;51.180;17.168;2022-10-23T09:46:50;7.32;;;5.97;;
10399;SDS011;10031;51.180;17.168;2022-10-23T09:49:22;8.52;;;6.50;;
10399;SDS011;10031;51.180;17.168;2022-10-23T09:52:01;7.45;;;5.82;;
10399;SDS011;10031;51.180;17.168;2022-10-23T09:54:46;8.30;;;6.03;;
10399;SDS011;10031;51.180;17.168;2022-10-23T09:57:22;7.68;;;5.32;;
10399;SDS011;10031;51.180;17.168;2022-10-23T09:59:54;8.13;;;4.70;;
10399;SDS011;10031;51.180;17.168;2022-10-23T10:04:57;7.00;;;4.90;;
10399;SDS011;10031;51.180;17.168;2022-10-23T10:07:26;5.40;;;4.32;;
10399;SDS011;10031;51.180;17.168;2022-10-23T10:09:54;7.63;;;4.47;;
10399;SDS011;10031;51.180;17.168;2022-10-23T10:17:31;5.63;;;4.70;;
10399;SDS011;10031;51.180;17.168;2022-10-23T10:20:17;7.15;;;4.60;;
10399;SDS011;10031;51.180;17.168;2022-10-23T10:22:52;5.68;;;4.18;;
10399;SDS011;10031;51.180;17.168;2022-10-23T10:25:39;5.30;;;4.40;;
10399;SDS011;10031;51.180;17.168;2022-10-23T10:41:58;6.03;;;4.63;;
10399;SDS011;10031;51.180;17.168;2022-10-23T10:47:10;7.78;;;5.13;;
10399;SDS011;10031;51.180;17.168;2022-10-23T10:49:58;8.85;;;5.22;;
10399;SDS011;10031;51.180;17.168;2022-10-23T10:55:18;10.15;;;4.65;;
10399;SDS011;10031;51.180;17.168;2022-10-23T10:57:58;8.48;;;5.28;;
10399;SDS011;10031;51.180;17.168;2022-10-23T11:00:27;7.40;;;4.78;;
10399;SDS011;10031;51.180;17.168;2022-10-23T11:06:00;5.88;;;4.28;;
10399;SDS011;10031;51.180;17.168;2022-10-23T11:11:10;5.47;;;4.30;;
10399;SDS011;10031;51.180;17.168;2022-10-23T11:13:41;5.20;;;3.83;;
10399;SDS011;10031;51.180;17.168;2022-10-23T11:16:24;7.50;;;4.20;;
10399;SDS011;10031;51.180;17.168;2022-10-23T11:18:59;8.48;;;4.53;;
10399;SDS011;10031;51.180;17.168;2022-10-23T11:21:40;6.63;;;4.65;;
10399;SDS011;10031;51.180;17.168;2022-10-23T11:40:45;7.15;;;3.60;;
10399;SDS011;10031;51.180;17.168;2022-10-23T11:48:48;5.38;;;3.97;;
10399;SDS011;10031;51.180;17.168;2022-10-23T11:56:38;6.00;;;4.00;;
10399;SDS011;10031;51.180;17.168;2022-10-23T11:59:33;6.88;;;4.38;;
10399;SDS011;10031;51.180;17.168;2022-10-23T12:05:07;6.32;;;4.10;;
10399;SDS011;10031;51.180;17.168;2022-10-23T12:07:55;4.15;;;3.75;;
10399;SDS011;10031;51.180;17.168;2022-10-23T12:10:28;6.25;;;4.10;;
10399;SDS011;10031;51.180;17.168;2022-10-23T12:12:56;6.65;;;4.18;;
10399;SDS011;10031;51.180;17.168;2022-10-23T12:15:23;7.10;;;4.35;;
10399;SDS011;10031;51.180;17.168;2022-10-23T12:17:51;5.07;;;4.18;;
10399;SDS011;10031;51.180;17.168;2022-10-23T12:20:25;8.45;;;4.40;;
10399;SDS011;10031;51.180;17.168;2022-10-23T12:33:31;5.22;;;3.92;;
10399;SDS011;10031;51.180;17.168;2022-10-23T12:38:58;6.63;;;4.20;;
10399;SDS011;10031;51.180;17.168;2022-10-23T12:41:25;7.03;;;4.15;;
10399;SDS011;10031;51.180;17.168;2022-10-23T12:49:10;5.20;;;3.92;;
10399;SDS011;10031;51.180;17.168;2022-10-23T12:51:38;6.28;;;3.90;;
10399;SDS011;10031;51.180;17.168;2022-10-23T12:54:15;5.13;;;3.80;;
10399;SDS011;10031;51.180;17.168;2022-10-23T12:56:47;5.78;;;3.78;;
10399;SDS011;10031;51.180;17.168;2022-10-23T12:59:14;6.35;;;4.15;;
10399;SDS011;10031;51.180;17.168;2022-10-23T13:01:42;7.57;;;3.92;;
10399;SDS011;10031;51.180;17.168;2022-10-23T13:04:22;7.95;;;4.13;;
10399;SDS011;10031;51.180;17.168;2022-10-23T13:06:50;5.95;;;3.83;;
10399;SDS011;10031;51.180;17.168;2022-10-23T13:09:32;4.35;;;3.45;;
10399;SDS011;10031;51.180;17.168;2022-10-23T13:11:59;6.45;;;3.92;;
10399;SDS011;10031;51.180;17.168;2022-10-23T13:14:30;4.35;;;3.45;;
10399;SDS011;10031;51.180;17.168;2022-10-23T13:17:05;7.32;;;3.67;;
10399;SDS011;10031;51.180;17.168;2022-10-23T13:19:33;7.30;;;3.38;;
10399;SDS011;10031;51.180;17.168;2022-10-23T13:21:59;5.03;;;3.45;;
10399;SDS011;10031;51.180;17.168;2022-10-23T13:24:32;5.43;;;3.80;;
10399;SDS011;10031;51.180;17.168;2022-10-23T13:26:59;5.63;;;3.50;;
10399;SDS011;10031;51.180;17.168;2022-10-23T13:29:30;5.03;;;3.75;;
10399;SDS011;10031;51.180;17.168;2022-10-23T13:32:11;6.82;;;3.67;;
10399;SDS011;10031;51.180;17.168;2022-10-23T13:34:52;5.88;;;3.95;;
10399;SDS011;10031;51.180;17.168;2022-10-23T13:37:26;5.40;;;3.70;;
10399;SDS011;10031;51.180;17.168;2022-10-23T13:39:58;6.45;;;3.92;;
10399;SDS011;10031;51.180;17.168;2022-10-23T13:42:28;9.00;;;4.15;;
10399;SDS011;10031;51.180;17.168;2022-10-23T13:44:54;4.78;;;4.00;;
10399;SDS011;10031;51.180;17.168;2022-10-23T13:47:20;7.65;;;3.70;;
10399;SDS011;10031;51.180;17.168;2022-10-23T13:49:50;6.15;;;3.60;;
10399;SDS011;10031;51.180;17.168;2022-10-23T13:52:16;6.63;;;4.00;;
10399;SDS011;10031;51.180;17.168;2022-10-23T13:54:44;3.88;;;3.47;;
10399;SDS011;10031;51.180;17.168;2022-10-23T13:57:12;6.28;;;3.60;;
10399;SDS011;10031;51.180;17.168;2022-10-23T13:59:39;9.73;;;3.72;;
10399;SDS011;10031;51.180;17.168;2022-10-23T14:02:17;4.90;;;3.75;;
10399;SDS011;10031;51.180;17.168;2022-10-23T14:04:46;5.03;;;3.50;;
10399;SDS011;10031;51.180;17.168;2022-10-23T14:07:12;6.72;;;4.20;;
10399;SDS011;10031;51.180;17.168;2022-10-23T14:09:39;7.47;;;4.50;;
10399;SDS011;10031;51.180;17.168;2022-10-23T14:12:07;7.65;;;4.30;;
10399;SDS011;10031;51.180;17.168;2022-10-23T14:14:36;7.20;;;4.60;;
10399;SDS011;10031;51.180;17.168;2022-10-23T14:17:01;8.10;;;5.00;;
10399;SDS011;10031;51.180;17.168;2022-10-23T14:19:27;11.18;;;4.93;;
10399;SDS011;10031;51.180;17.168;2022-10-23T14:21:53;9.32;;;4.70;;
10399;SDS011;10031;51.180;17.168;2022-10-23T14:24:21;7.25;;;4.88;;
10399;SDS011;10031;51.180;17.168;2022-10-23T14:26:47;6.47;;;4.95;;
10399;SDS011;10031;51.180;17.168;2022-10-23T14:29:16;10.07;;;5.18;;
10399;SDS011;10031;51.180;17.168;2022-10-23T14:31:42;7.47;;;5.10;;
10399;SDS011;10031;51.180;17.168;2022-10-23T14:34:08;9.30;;;5.25;;
10399;SDS011;10031;51.180;17.168;2022-10-23T14:36:33;11.00;;;5.60;;
10399;SDS011;10031;51.180;17.168;2022-10-23T14:38:59;9.05;;;4.95;;
10399;SDS011;10031;51.180;17.168;2022-10-23T14:41:25;10.43;;;5.22;;
10399;SDS011;10031;51.180;17.168;2022-10-23T14:43:52;8.93;;;5.07;;
10399;SDS011;10031;51.180;17.168;2022-10-23T14:46:19;8.73;;;5.65;;
10399;SDS011;10031;51.180;17.168;2022-10-23T14:48:47;8.38;;;5.68;;
10399;SDS011;10031;51.180;17.168;2022-10-23T14:51:14;8.00;;;5.97;;
10399;SDS011;10031;51.180;17.168;2022-10-23T14:53:40;12.02;;;6.00;;
10399;SDS011;10031;51.180;17.168;2022-10-23T14:56:07;9.13;;;5.55;;
10399;SDS011;10031;51.180;17.168;2022-10-23T14:58:40;7.68;;;5.78;;
10399;SDS011;10031;51.180;17.168;2022-10-23T15:01:07;18.48;;;6.13;;
10399;SDS011;10031;51.180;17.168;2022-10-23T15:03:34;11.43;;;6.60;;
10399;SDS011;10031;51.180;17.168;2022-10-23T15:06:01;9.60;;;6.05;;
10399;SDS011;10031;51.180;17.168;2022-10-23T15:08:28;9.85;;;6.00;;
10399;SDS011;10031;51.180;17.168;2022-10-23T15:11:01;10.00;;;6.65;;
10399;SDS011;10031;51.180;17.168;2022-10-23T15:13:30;9.82;;;7.03;;
10399;SDS011;10031;51.180;17.168;2022-10-23T15:16:00;8.82;;;6.15;;
10399;SDS011;10031;51.180;17.168;2022-10-23T15:18:31;11.43;;;6.75;;
10399;SDS011;10031;51.180;17.168;2022-10-23T15:21:00;10.20;;;6.93;;
10399;SDS011;10031;51.180;17.168;2022-10-23T15:23:27;9.07;;;6.45;;
10399;SDS011;10031;51.180;17.168;2022-10-23T15:25:53;13.88;;;7.13;;
10399;SDS011;10031;51.180;17.168;2022-10-23T15:28:20;11.65;;;7.38;;
10399;SDS011;10031;51.180;17.168;2022-10-23T15:30:46;8.77;;;6.43;;
10399;SDS011;10031;51.180;17.168;2022-10-23T15:33:15;12.25;;;7.18;;
10399;SDS011;10031;51.180;17.168;2022-10-23T15:35:42;7.95;;;6.22;;
10399;SDS011;10031;51.180;17.168;2022-10-23T15:38:07;9.38;;;6.55;;
10399;SDS011;10031;51.180;17.168;2022-10-23T15:40:42;13.40;;;6.80;;
10399;SDS011;10031;51.180;17.168;2022-10-23T15:43:10;8.45;;;5.90;;
10399;SDS011;10031;51.180;17.168;2022-10-23T15:45:36;9.85;;;6.18;;
10399;SDS011;10031;51.180;17.168;2022-10-23T15:48:02;9.30;;;6.60;;
10399;SDS011;10031;51.180;17.168;2022-10-23T15:50:29;11.95;;;6.38;;
10399;SDS011;10031;51.180;17.168;2022-10-23T15:52:55;10.55;;;6.43;;
10399;SDS011;10031;51.180;17.168;2022-10-23T15:55:22;10.00;;;6.35;;
10399;SDS011;10031;51.180;17.168;2022-10-23T15:57:51;10.45;;;6.72;;
10399;SDS011;10031;51.180;17.168;2022-10-23T16:00:19;9.95;;;7.35;;
10399;SDS011;10031;51.180;17.168;2022-10-23T16:02:46;9.23;;;5.70;;
10399;SDS011;10031;51.180;17.168;2022-10-23T16:05:12;13.20;;;6.87;;
10399;SDS011;10031;51.180;17.168;2022-10-23T16:07:38;10.57;;;6.47;;
10399;SDS011;10031;51.180;17.168;2022-10-23T16:10:04;9.60;;;6.30;;
10399;SDS011;10031;51.180;17.168;2022-10-23T16:12:30;12.03;;;7.10;;
10399;SDS011;10031;51.180;17.168;2022-10-23T16:14:59;12.60;;;8.00;;
10399;SDS011;10031;51.180;17.168;2022-10-23T16:17:25;11.00;;;7.40;;
10399;SDS011;10031;51.180;17.168;2022-10-23T16:19:51;11.17;;;6.60;;
10399;SDS011;10031;51.180;17.168;2022-10-23T16:22:21;15.67;;;7.20;;
10399;SDS011;10031;51.180;17.168;2022-10-23T16:24:48;8.10;;;6.20;;
10399;SDS011;10031;51.180;17.168;2022-10-23T16:27:14;7.67;;;6.40;;
10399;SDS011;10031;51.180;17.168;2022-10-23T16:29:40;10.13;;;7.37;;
10399;SDS011;10031;51.180;17.168;2022-10-23T16:32:08;11.97;;;7.33;;
10399;SDS011;10031;51.180;17.168;2022-10-23T16:34:36;12.70;;;8.10;;
10399;SDS011;10031;51.180;17.168;2022-10-23T16:37:05;14.67;;;8.87;;
10399;SDS011;10031;51.180;17.168;2022-10-23T16:39:31;13.63;;;8.17;;
10399;SDS011;10031;51.180;17.168;2022-10-23T16:41:57;14.43;;;9.00;;
10399;SDS011;10031;51.180;17.168;2022-10-23T16:44:23;10.67;;;8.13;;